Aeroporto :
LOGIN :

Iscrizione | Disclaimer

   EN    FR    IT 

 










Sommario :    VFR   VFR Marginale   IFR   IFR Intensivo   IFR Molto Intensivo
Visibilità : 
Base nubi : 
>= 8 km
>= 3000ft
5 / 8 km
1000 / 3000 ft
1500m / 5 km
500 / 1000 ft
800 / 1500m
200 / 500 ft
< 800m
< 200 ft
Simboli :   Temporali  Nebbia  Neve Forte  Precipitazioni Forti  Vento > 20 kt
SIGMETs :   Varie  Temporali  Ghiacco  Turbolenza  Onda orograficha  Ceneri Vulcaniche






- Altitudine del aeroporto : 265 ft
- Codice IATA : BJY


LYBT - Batajnica Air Base

ULTIMO METAR :
  • 030030Z 16002KT 1500 BR NSC 08/08 Q1009 NOSIG

METARs OBSOLETI :
  • 030000Z 15002KT 3000 BR NSC 08/08 Q1009 NOSIG
  • 022330Z 16002KT 3000 BR NSC 08/08 Q1010 NOSIG
  • 022300Z 15003KT 3000 BR NSC 08/08 Q1010 NOSIG
  • 022230Z 16003KT 2000 BR NSC 09/09 Q1010 NOSIG
  • 022200Z VRB02KT 2000 BR NSC 08/08 Q1010 NOSIG

TAF TAF LYBT
Valido dal 03 a 00 ore il 04 a 00 ore UTC


022300Z 0300/0324 21005KT 3000 BR NSC TX20/0313Z TN07/0303Z
TEMPO 0300/0305 0400 FG
BECMG 0305/0307 9999 NSW
TEMPO 0310/0317 27015G25KT 4000 TSRA SCT025CB BKN030
TEMPO 0321/0324 2000 BR



MetMap, La meteo Aeronautica in un colpo d'occhio ! - Copyright ORBIFLY Dicembre 2007 - Disclaimer

ORBIFLY MET'MAP TEAM :

Programmazione e sviluppo : Alexandra Zaïnal
Concezione : Baudouin d'Aumeries
Aiuto per la programmazione : Marc-Olivier Méhu
Supporto tecnico e logistico : Manuel Goepfert
Aiuto per la traduzione : Arnaldo La Scala

Contatto : metmap@orbifly.com




FONTI E CREDITI :

   NOAA